createdAt,value
2023-03-27T00:00:18.764Z,4.13
2023-03-27T00:01:18.737Z,4.05
2023-03-27T00:02:18.890Z,4.05
2023-03-27T00:03:18.872Z,4.10
2023-03-27T00:04:18.868Z,4.06
2023-03-27T00:05:18.688Z,4.10
2023-03-27T00:06:18.674Z,3.99
2023-03-27T00:07:18.689Z,4.08
2023-03-27T00:08:18.702Z,4.04
2023-03-27T00:09:18.642Z,4.04
2023-03-27T00:10:18.633Z,3.98
2023-03-27T00:11:18.634Z,4.02
2023-03-27T00:12:18.613Z,4.02
2023-03-27T00:13:18.599Z,4.01
2023-03-27T00:14:18.615Z,4.02
2023-03-27T00:15:18.577Z,4.04
2023-03-27T00:16:18.627Z,4.05
2023-03-27T00:17:18.553Z,4.05
2023-03-27T00:18:18.563Z,3.96
2023-03-27T00:19:18.535Z,3.99
2023-03-27T00:20:18.538Z,3.96
2023-03-27T00:21:18.515Z,3.95
2023-03-27T00:22:18.505Z,3.95
2023-03-27T00:23:18.488Z,4.01
2023-03-27T00:24:18.487Z,4.02
2023-03-27T00:25:18.469Z,4.02
2023-03-27T00:26:18.454Z,4.04
2023-03-27T00:27:18.465Z,4.05
2023-03-27T00:28:18.429Z,3.99
2023-03-27T00:29:18.440Z,4.01
2023-03-27T00:30:18.413Z,3.98
2023-03-27T00:31:18.470Z,4.05
2023-03-27T00:32:18.387Z,3.99
2023-03-27T00:33:18.402Z,3.96
2023-03-27T00:34:18.424Z,3.95
2023-03-27T00:35:18.405Z,3.96
2023-03-27T00:36:18.341Z,3.95
2023-03-27T00:37:18.332Z,3.92
2023-03-27T00:38:18.319Z,3.91
2023-03-27T00:39:18.311Z,3.95
2023-03-27T00:40:18.308Z,3.87
2023-03-27T00:41:18.320Z,3.91
2023-03-27T00:42:18.275Z,3.87
2023-03-27T00:43:18.270Z,3.87
2023-03-27T00:44:18.261Z,3.91
2023-03-27T00:45:18.270Z,3.91
2023-03-27T00:46:18.258Z,3.83
2023-03-27T00:47:18.234Z,3.86
2023-03-27T00:48:18.211Z,3.87
2023-03-27T00:49:18.200Z,3.91
2023-03-27T00:50:18.227Z,3.86
2023-03-27T00:51:18.178Z,3.94
2023-03-27T00:52:18.166Z,3.92
2023-03-27T00:53:18.171Z,3.86
2023-03-27T00:54:18.144Z,3.83
2023-03-27T00:55:18.143Z,3.92
2023-03-27T00:56:18.164Z,3.92
2023-03-27T00:57:18.129Z,3.95
2023-03-27T00:58:18.102Z,3.92
2023-03-27T00:59:18.089Z,3.88
2023-03-27T01:00:18.081Z,3.94
2023-03-27T01:01:18.128Z,3.87
2023-03-27T01:02:18.141Z,3.83
2023-03-27T01:03:18.202Z,3.84
2023-03-27T01:04:18.030Z,3.80
2023-03-27T01:05:18.116Z,3.84
2023-03-27T01:06:18.039Z,3.70
2023-03-27T01:07:18.010Z,3.70
2023-03-27T01:08:17.999Z,3.78
2023-03-27T01:09:20.341Z,3.66
2023-03-27T01:10:17.965Z,3.74
2023-03-27T01:11:17.956Z,3.70
2023-03-27T01:12:17.947Z,3.68
2023-03-27T01:13:17.933Z,3.60
2023-03-27T01:14:17.918Z,3.69
2023-03-27T01:15:17.924Z,3.59
2023-03-27T01:16:17.938Z,3.62
2023-03-27T01:17:17.907Z,3.60
2023-03-27T01:18:17.877Z,3.65
2023-03-27T01:19:17.864Z,3.59
2023-03-27T01:20:17.857Z,3.59
2023-03-27T01:21:17.855Z,3.58
2023-03-27T01:22:17.858Z,3.56
2023-03-27T01:23:36.223Z,3.55
2023-03-27T01:24:18.813Z,3.53
2023-03-27T01:25:17.798Z,3.53
2023-03-27T01:26:17.793Z,3.51
2023-03-27T01:27:18.786Z,3.47
2023-03-27T01:28:24.889Z,3.53
2023-03-27T01:29:17.747Z,3.45
2023-03-27T01:30:17.741Z,3.47
2023-03-27T01:31:17.764Z,3.55
2023-03-27T01:32:17.742Z,3.51
2023-03-27T01:33:17.721Z,3.45
2023-03-27T01:34:17.716Z,3.47
2023-03-27T01:35:17.841Z,3.36
2023-03-27T01:36:17.680Z,3.41
2023-03-27T01:37:17.668Z,3.41
2023-03-27T01:38:17.697Z,3.48
2023-03-27T01:39:17.682Z,3.45
2023-03-27T01:40:17.633Z,3.31
2023-03-27T01:41:17.634Z,3.40
2023-03-27T01:42:17.634Z,3.41
2023-03-27T01:43:17.596Z,3.44
2023-03-27T01:44:17.592Z,3.42
2023-03-27T01:45:17.578Z,3.44
2023-03-27T01:46:17.611Z,3.41
2023-03-27T01:47:17.561Z,3.41
2023-03-27T01:48:17.563Z,3.42
2023-03-27T01:49:17.539Z,3.40
2023-03-27T01:50:17.526Z,3.29
2023-03-27T01:51:17.519Z,3.34
2023-03-27T01:52:17.517Z,3.26
2023-03-27T01:53:17.503Z,3.23
2023-03-27T01:54:17.519Z,3.25
2023-03-27T01:55:17.471Z,3.22
2023-03-27T01:56:17.455Z,3.26
2023-03-27T01:57:17.484Z,3.29
2023-03-27T01:58:17.439Z,3.23
2023-03-27T01:59:17.428Z,3.23
2023-03-27T02:00:19.474Z,3.23
2023-03-27T02:01:17.442Z,3.23
2023-03-27T02:02:17.408Z,3.14
2023-03-27T02:03:17.379Z,3.03
2023-03-27T02:04:17.378Z,3.08
2023-03-27T02:05:17.392Z,3.03
2023-03-27T02:06:17.344Z,3.13
2023-03-27T02:07:17.337Z,3.07
2023-03-27T02:08:17.332Z,3.08
2023-03-27T02:09:17.335Z,3.07
2023-03-27T02:10:17.328Z,3.04
2023-03-27T02:11:17.296Z,3.08
2023-03-27T02:12:17.287Z,3.10
2023-03-27T02:13:17.285Z,3.08
2023-03-27T02:14:17.262Z,3.03
2023-03-27T02:15:23.723Z,3.05
2023-03-27T02:16:18.277Z,3.05
2023-03-27T02:17:17.223Z,3.14
2023-03-27T02:18:17.230Z,3.05
2023-03-27T02:19:17.199Z,3.16
2023-03-27T02:20:17.201Z,3.10
2023-03-27T02:21:17.177Z,3.04
2023-03-27T02:22:17.180Z,3.19
2023-03-27T02:23:17.192Z,3.08
2023-03-27T02:24:17.149Z,3.10
2023-03-27T02:25:17.141Z,3.18
2023-03-27T02:26:17.149Z,3.07
2023-03-27T02:27:17.125Z,3.03
2023-03-27T02:28:17.118Z,3.13
2023-03-27T02:29:17.107Z,3.16
2023-03-27T02:30:17.085Z,3.18
2023-03-27T02:31:32.522Z,3.22
2023-03-27T02:32:17.112Z,3.22
2023-03-27T02:33:17.060Z,3.22
2023-03-27T02:34:17.043Z,3.07
2023-03-27T02:35:17.040Z,3.10
2023-03-27T02:36:17.020Z,3.08
2023-03-27T02:37:17.011Z,3.19
2023-03-27T02:38:16.991Z,3.08
2023-03-27T02:39:16.986Z,3.14
2023-03-27T02:40:16.981Z,3.04
2023-03-27T02:41:16.987Z,3.05
2023-03-27T02:42:16.972Z,3.18
2023-03-27T02:43:16.942Z,3.05
2023-03-27T02:44:16.927Z,3.05
2023-03-27T02:45:16.916Z,3.07
2023-03-27T02:46:16.973Z,3.01
2023-03-27T02:47:16.940Z,3.16
2023-03-27T02:48:16.890Z,3.05
2023-03-27T02:49:16.867Z,3.04
2023-03-27T02:50:16.878Z,3.01
2023-03-27T02:51:16.853Z,3.03
2023-03-27T02:52:16.838Z,3.13
2023-03-27T02:53:16.847Z,3.07
2023-03-27T02:54:16.833Z,2.97
2023-03-27T02:55:16.828Z,3.04
2023-03-27T02:56:16.797Z,3.03
2023-03-27T02:57:16.872Z,2.95
2023-03-27T02:58:16.794Z,2.95
2023-03-27T02:59:16.767Z,2.97
2023-03-27T03:00:16.761Z,3.10
2023-03-27T03:01:16.814Z,3.05
2023-03-27T03:02:16.803Z,3.10
2023-03-27T03:03:16.877Z,3.11
2023-03-27T03:04:16.779Z,3.03
2023-03-27T03:05:16.704Z,3.04
2023-03-27T03:06:16.687Z,3.05
2023-03-27T03:07:16.682Z,3.07
2023-03-27T03:08:16.681Z,3.03
2023-03-27T03:09:16.665Z,3.05
2023-03-27T03:10:16.655Z,3.08
2023-03-27T03:11:16.632Z,3.03
2023-03-27T03:12:16.634Z,3.04
2023-03-27T03:13:16.616Z,3.00
2023-03-27T03:14:16.689Z,3.00
2023-03-27T03:15:16.595Z,3.03
2023-03-27T03:16:16.629Z,3.01
2023-03-27T03:17:16.571Z,3.01
2023-03-27T03:18:16.568Z,2.98
2023-03-27T03:19:16.540Z,2.93
2023-03-27T03:20:16.552Z,2.92
2023-03-27T03:21:16.547Z,2.95
2023-03-27T03:22:16.518Z,3.04
2023-03-27T03:23:16.504Z,2.92
2023-03-27T03:24:16.486Z,3.07
2023-03-27T03:25:16.487Z,3.08
2023-03-27T03:26:16.466Z,3.05
2023-03-27T03:27:16.474Z,3.08
2023-03-27T03:28:16.445Z,3.00
2023-03-27T03:29:16.427Z,3.03
2023-03-27T03:30:17.588Z,3.00
2023-03-27T03:31:16.423Z,3.07
2023-03-27T03:32:16.418Z,3.00
2023-03-27T03:33:16.386Z,2.95
2023-03-27T03:34:16.666Z,2.92
2023-03-27T03:35:16.410Z,2.97
2023-03-27T03:36:16.373Z,3.08
2023-03-27T03:37:16.347Z,3.07
2023-03-27T03:38:16.337Z,3.00
2023-03-27T03:39:16.333Z,2.98
2023-03-27T03:40:16.319Z,3.07
2023-03-27T03:41:16.323Z,3.05
2023-03-27T03:42:22.739Z,3.03
2023-03-27T03:43:17.279Z,3.00
2023-03-27T03:44:16.266Z,3.05
2023-03-27T03:45:16.262Z,3.04
2023-03-27T03:46:16.319Z,3.05
2023-03-27T03:47:16.240Z,2.98
2023-03-27T03:48:16.224Z,2.95
2023-03-27T03:49:16.210Z,2.93
2023-03-27T03:50:16.242Z,2.98
2023-03-27T03:51:16.190Z,2.98
2023-03-27T03:52:16.187Z,2.98
2023-03-27T03:53:16.182Z,3.01
2023-03-27T03:54:16.163Z,3.03
2023-03-27T03:55:16.155Z,2.97
2023-03-27T03:56:16.147Z,2.95
2023-03-27T03:57:16.152Z,2.93
2023-03-27T03:58:16.110Z,2.95
2023-03-27T03:59:16.092Z,2.97
2023-03-27T04:00:16.110Z,2.90
2023-03-27T04:01:16.077Z,2.93
2023-03-27T04:02:16.153Z,2.90
2023-03-27T04:03:16.210Z,2.98
2023-03-27T04:04:16.041Z,2.93
2023-03-27T04:05:16.052Z,2.90
2023-03-27T04:06:16.033Z,2.93
2023-03-27T04:07:16.028Z,2.92
2023-03-27T04:08:15.992Z,2.98
2023-03-27T04:09:15.980Z,2.93
2023-03-27T04:10:15.984Z,2.87
2023-03-27T04:11:15.990Z,2.93
2023-03-27T04:12:15.961Z,2.87
2023-03-27T04:13:15.932Z,2.97
2023-03-27T04:14:15.926Z,2.90
2023-03-27T04:15:15.935Z,2.83
2023-03-27T04:16:16.006Z,2.89
2023-03-27T04:17:15.904Z,2.86
2023-03-27T04:18:15.965Z,2.83
2023-03-27T04:19:15.871Z,2.93
2023-03-27T04:20:15.859Z,2.89
2023-03-27T04:21:15.883Z,2.97
2023-03-27T04:22:15.843Z,2.87
2023-03-27T04:23:15.832Z,2.85
2023-03-27T04:24:15.813Z,2.85
2023-03-27T04:25:15.806Z,3.01
2023-03-27T04:26:16.082Z,2.93
2023-03-27T04:27:15.811Z,2.93
2023-03-27T04:28:15.774Z,2.86
2023-03-27T04:29:15.833Z,2.97
2023-03-27T04:30:15.886Z,2.95
2023-03-27T04:31:15.871Z,2.95
2023-03-27T04:32:15.761Z,2.85
2023-03-27T04:33:15.772Z,2.90
2023-03-27T04:34:15.787Z,2.97
2023-03-27T04:35:15.699Z,2.93
2023-03-27T04:36:15.781Z,2.92
2023-03-27T04:37:15.829Z,2.79
2023-03-27T04:38:15.668Z,2.82
2023-03-27T04:39:15.649Z,2.77
2023-03-27T04:40:15.646Z,2.86
2023-03-27T04:41:15.848Z,2.90
2023-03-27T04:42:15.621Z,2.86
2023-03-27T04:43:15.625Z,3.01
2023-03-27T04:44:15.606Z,2.85
2023-03-27T04:45:15.589Z,2.89
2023-03-27T04:46:15.632Z,2.93
2023-03-27T04:47:15.624Z,2.87
2023-03-27T04:48:15.564Z,2.87
2023-03-27T04:49:15.549Z,2.83
2023-03-27T04:50:15.552Z,2.97
2023-03-27T04:51:15.525Z,2.95
2023-03-27T04:52:15.520Z,2.92
2023-03-27T04:53:15.512Z,2.95
2023-03-27T04:54:15.495Z,2.98
2023-03-27T04:55:15.514Z,2.97
2023-03-27T04:56:15.484Z,3.04
2023-03-27T04:57:15.511Z,2.92
2023-03-27T04:58:15.451Z,2.92
2023-03-27T04:59:15.436Z,2.93
2023-03-27T05:00:15.427Z,2.92
2023-03-27T05:01:15.440Z,2.95
2023-03-27T05:02:15.397Z,2.93
2023-03-27T05:03:15.469Z,2.90
2023-03-27T05:04:15.382Z,2.95
2023-03-27T05:05:15.363Z,2.97
2023-03-27T05:06:15.399Z,3.01
2023-03-27T05:07:15.345Z,2.97
2023-03-27T05:08:15.344Z,3.03
2023-03-27T05:09:15.336Z,2.95
2023-03-27T05:10:15.303Z,3.03
2023-03-27T05:11:15.295Z,3.03
2023-03-27T05:12:15.288Z,3.08
2023-03-27T05:13:15.273Z,3.03
2023-03-27T05:14:15.421Z,2.98
2023-03-27T05:15:15.251Z,3.04
2023-03-27T05:16:15.267Z,3.08
2023-03-27T05:17:15.224Z,3.04
2023-03-27T05:18:15.232Z,2.98
2023-03-27T05:19:15.215Z,3.10
2023-03-27T05:20:15.220Z,3.07
2023-03-27T05:21:15.235Z,3.14
2023-03-27T05:22:15.190Z,3.00
2023-03-27T05:23:15.162Z,3.03
2023-03-27T05:24:15.166Z,3.08
2023-03-27T05:25:15.142Z,3.01
2023-03-27T05:26:15.137Z,3.05
2023-03-27T05:27:15.117Z,3.05
2023-03-27T05:28:15.123Z,3.01
2023-03-27T05:29:15.092Z,3.04
2023-03-27T05:30:15.114Z,3.18
2023-03-27T05:31:15.195Z,3.10
2023-03-27T05:32:15.060Z,3.03
2023-03-27T05:33:15.062Z,3.11
2023-03-27T05:34:15.044Z,3.10
2023-03-27T05:35:15.030Z,3.18
2023-03-27T05:36:15.039Z,3.18
2023-03-27T05:37:15.003Z,3.07
2023-03-27T05:38:15.028Z,3.05
2023-03-27T05:39:14.991Z,3.13
2023-03-27T05:40:14.975Z,3.21
2023-03-27T05:41:14.958Z,3.14
2023-03-27T05:42:14.967Z,3.16
2023-03-27T05:43:14.947Z,3.07
2023-03-27T05:44:14.930Z,3.11
2023-03-27T05:45:14.920Z,3.14
2023-03-27T05:46:21.152Z,3.14
2023-03-27T05:47:15.899Z,3.13
2023-03-27T05:48:14.901Z,3.11
2023-03-27T05:49:14.882Z,3.08
2023-03-27T05:50:14.861Z,3.14
2023-03-27T05:51:14.854Z,3.13
2023-03-27T05:52:14.839Z,3.13
2023-03-27T05:53:14.831Z,3.14
2023-03-27T05:54:14.841Z,3.10
2023-03-27T05:55:14.812Z,3.25
2023-03-27T05:56:14.817Z,3.13
2023-03-27T05:57:14.803Z,3.18
2023-03-27T05:58:14.791Z,3.19
2023-03-27T05:59:14.762Z,3.22
2023-03-27T06:00:14.755Z,3.25
2023-03-27T06:01:14.750Z,3.22
2023-03-27T06:02:14.783Z,3.23
2023-03-27T06:03:14.831Z,3.25
2023-03-27T06:04:14.751Z,3.29
2023-03-27T06:05:14.726Z,3.32
2023-03-27T06:06:14.705Z,3.23
2023-03-27T06:07:14.672Z,3.31
2023-03-27T06:08:14.667Z,3.42
2023-03-27T06:09:14.656Z,3.45
2023-03-27T06:10:14.683Z,3.45
2023-03-27T06:11:14.633Z,3.60
2023-03-27T06:12:14.629Z,3.78
2023-03-27T06:13:14.623Z,3.83
2023-03-27T06:14:14.602Z,3.84
2023-03-27T06:15:14.614Z,3.94
2023-03-27T06:16:14.629Z,3.99
2023-03-27T06:17:14.571Z,3.94
2023-03-27T06:18:14.582Z,4.05
2023-03-27T06:19:14.547Z,4.16
2023-03-27T06:20:14.540Z,4.44
2023-03-27T06:21:14.547Z,4.59
2023-03-27T06:22:14.503Z,4.97
2023-03-27T06:23:14.502Z,5.11
2023-03-27T06:24:14.638Z,5.41
2023-03-27T06:25:14.509Z,5.48
2023-03-27T06:26:14.490Z,5.46
2023-03-27T06:27:14.494Z,5.46
2023-03-27T06:28:14.442Z,5.30
2023-03-27T06:29:14.438Z,5.20
2023-03-27T06:30:14.414Z,5.07
2023-03-27T06:31:14.423Z,4.93
2023-03-27T06:32:14.414Z,4.80
2023-03-27T06:33:14.393Z,4.71
2023-03-27T06:34:14.381Z,4.56
2023-03-27T06:35:14.382Z,4.45
2023-03-27T06:36:14.361Z,4.42
2023-03-27T06:37:14.355Z,4.40
2023-03-27T06:38:14.330Z,4.49
2023-03-27T06:39:14.334Z,4.45
2023-03-27T06:40:14.308Z,4.44
2023-03-27T06:41:14.305Z,4.53
2023-03-27T06:42:14.306Z,4.48
2023-03-27T06:43:14.299Z,4.59
2023-03-27T06:44:14.262Z,4.62
2023-03-27T06:45:14.254Z,4.53
2023-03-27T06:46:14.296Z,4.63
2023-03-27T06:47:14.297Z,4.55
2023-03-27T06:48:21.640Z,4.74
2023-03-27T06:49:15.207Z,4.87
2023-03-27T06:50:14.194Z,5.25
2023-03-27T06:51:14.198Z,5.69
2023-03-27T06:52:14.179Z,6.17
2023-03-27T06:53:25.769Z,6.38
2023-03-27T06:54:15.149Z,6.12
2023-03-27T06:55:15.074Z,5.86
2023-03-27T06:56:14.133Z,5.62
2023-03-27T06:57:14.231Z,5.69
2023-03-27T06:58:14.137Z,5.65
2023-03-27T06:59:14.096Z,5.97
2023-03-27T07:00:14.080Z,6.11
2023-03-27T07:01:14.093Z,6.07
2023-03-27T07:02:14.057Z,6.51
2023-03-27T07:03:14.051Z,6.95
2023-03-27T07:04:14.041Z,7.18
2023-03-27T07:05:14.064Z,7.31
2023-03-27T07:06:14.022Z,7.40
2023-03-27T07:07:14.013Z,7.47
2023-03-27T07:08:22.432Z,7.32
2023-03-27T07:09:14.986Z,7.39
2023-03-27T07:10:13.976Z,7.70
2023-03-27T07:11:14.255Z,7.93
2023-03-27T07:12:13.962Z,8.31
2023-03-27T07:13:13.935Z,8.42
2023-03-27T07:14:13.958Z,8.69
2023-03-27T07:15:13.922Z,8.78
2023-03-27T07:16:13.915Z,9.08
2023-03-27T07:17:13.882Z,9.29
2023-03-27T07:18:13.893Z,9.41
2023-03-27T07:19:13.870Z,9.44
2023-03-27T07:20:13.849Z,9.64
2023-03-27T07:21:13.844Z,9.83
2023-03-27T07:22:13.841Z,10.04
2023-03-27T07:23:13.821Z,10.09
2023-03-27T07:24:13.814Z,9.95
2023-03-27T07:25:13.809Z,9.89
2023-03-27T07:26:13.785Z,9.46
2023-03-27T07:27:14.044Z,9.32
2023-03-27T07:28:13.755Z,9.23
2023-03-27T07:29:20.876Z,8.87
2023-03-27T07:30:13.745Z,8.58
2023-03-27T07:31:32.663Z,8.26
2023-03-27T07:33:13.761Z,7.94
2023-03-27T07:34:13.889Z,7.82
2023-03-27T07:35:13.704Z,7.87
2023-03-27T07:36:13.668Z,7.94
2023-03-27T07:37:13.660Z,7.90
2023-03-27T07:38:13.649Z,8.01
2023-03-27T07:39:13.650Z,8.19
2023-03-27T07:40:13.616Z,8.36
2023-03-27T07:41:13.619Z,8.63
2023-03-27T07:42:13.614Z,8.89
2023-03-27T07:43:13.636Z,9.25
2023-03-27T07:44:13.580Z,9.25
2023-03-27T07:45:13.621Z,9.22
2023-03-27T07:46:13.598Z,9.25
2023-03-27T07:47:13.549Z,9.26
2023-03-27T07:48:13.537Z,9.19
2023-03-27T07:49:13.526Z,9.10
2023-03-27T07:50:13.538Z,9.22
2023-03-27T07:51:14.360Z,9.19
2023-03-27T07:52:15.329Z,9.26
2023-03-27T07:53:32.399Z,9.23
2023-03-27T07:54:14.470Z,9.23
2023-03-27T07:55:13.478Z,9.10
2023-03-27T07:56:13.452Z,9.21
2023-03-27T07:57:13.525Z,9.03
2023-03-27T07:58:13.503Z,8.85
2023-03-27T07:59:13.413Z,8.73
2023-03-27T08:00:13.401Z,8.51
2023-03-27T08:01:13.428Z,8.44
2023-03-27T08:02:13.383Z,8.33
2023-03-27T08:03:13.547Z,8.23
2023-03-27T08:04:13.433Z,8.19
2023-03-27T08:05:13.425Z,8.34
2023-03-27T08:06:13.348Z,8.34
2023-03-27T08:07:13.339Z,7.95
2023-03-27T08:08:13.310Z,7.82
2023-03-27T08:09:13.312Z,7.60
2023-03-27T08:10:13.288Z,7.58
2023-03-27T08:11:23.121Z,7.45
2023-03-27T08:12:14.272Z,7.33
2023-03-27T08:13:13.269Z,7.31
2023-03-27T08:14:13.248Z,7.36
2023-03-27T08:15:13.230Z,7.45
2023-03-27T08:16:13.289Z,7.51
2023-03-27T08:17:16.355Z,7.60
2023-03-27T08:18:13.299Z,7.61
2023-03-27T08:19:13.185Z,7.77
2023-03-27T08:20:13.185Z,7.66
2023-03-27T08:21:13.164Z,7.57
2023-03-27T08:22:13.152Z,7.54
2023-03-27T08:23:13.146Z,7.61
2023-03-27T08:24:13.139Z,7.63
2023-03-27T08:25:13.121Z,7.80
2023-03-27T08:26:14.002Z,7.60
2023-03-27T08:27:13.104Z,7.79
2023-03-27T08:28:13.079Z,7.82
2023-03-27T08:29:13.100Z,8.05
2023-03-27T08:30:13.860Z,8.12
2023-03-27T08:31:13.106Z,8.16
2023-03-27T08:32:13.036Z,8.19
2023-03-27T08:33:13.062Z,8.26
2023-03-27T08:34:13.013Z,8.30
2023-03-27T08:35:13.023Z,8.20
2023-03-27T08:36:13.028Z,8.19
2023-03-27T08:37:12.990Z,8.36
2023-03-27T08:38:25.743Z,8.37
2023-03-27T08:39:13.955Z,8.46
2023-03-27T08:40:12.963Z,8.49
2023-03-27T08:41:12.938Z,8.48
2023-03-27T08:42:12.942Z,8.58
2023-03-27T08:43:12.921Z,8.56
2023-03-27T08:44:12.898Z,8.66
2023-03-27T08:45:12.930Z,8.60
2023-03-27T08:46:12.894Z,8.78
2023-03-27T08:47:12.875Z,8.69
2023-03-27T08:48:12.858Z,8.63
2023-03-27T08:49:12.874Z,8.45
2023-03-27T08:50:12.837Z,8.60
2023-03-27T08:51:12.840Z,8.69
2023-03-27T08:52:12.827Z,8.64
2023-03-27T08:53:12.806Z,8.81
2023-03-27T08:54:12.794Z,8.97
2023-03-27T08:55:12.800Z,8.97
2023-03-27T08:56:12.791Z,9.08
2023-03-27T08:57:12.778Z,9.06
2023-03-27T08:58:12.745Z,8.87
2023-03-27T08:59:13.149Z,8.81
2023-03-27T09:00:12.725Z,8.82
2023-03-27T09:01:12.720Z,8.70
2023-03-27T09:02:12.755Z,8.74
2023-03-27T09:03:12.747Z,8.88
2023-03-27T09:04:12.687Z,9.06
2023-03-27T09:05:12.690Z,9.18
2023-03-27T09:06:12.673Z,9.29
2023-03-27T09:07:12.648Z,9.40
2023-03-27T09:08:12.647Z,9.47
2023-03-27T09:09:12.628Z,9.58
2023-03-27T09:10:12.614Z,9.68
2023-03-27T09:11:12.617Z,9.68
2023-03-27T09:12:12.598Z,9.72
2023-03-27T09:13:12.581Z,9.94
2023-03-27T09:14:12.565Z,9.91
2023-03-27T09:15:12.563Z,9.68
2023-03-27T09:16:12.629Z,9.58
2023-03-27T09:17:12.539Z,9.44
2023-03-27T09:18:12.526Z,9.40
2023-03-27T09:19:12.511Z,9.46
2023-03-27T09:20:12.512Z,9.46
2023-03-27T09:21:12.510Z,9.39
2023-03-27T09:22:12.486Z,9.59
2023-03-27T09:23:12.463Z,9.55
2023-03-27T09:24:12.450Z,9.61
2023-03-27T09:25:12.485Z,9.36
2023-03-27T09:26:12.444Z,9.28
2023-03-27T09:27:12.426Z,9.31
2023-03-27T09:28:12.415Z,9.29
2023-03-27T09:29:12.397Z,9.43
2023-03-27T09:30:13.409Z,9.51
2023-03-27T09:31:12.405Z,9.48
2023-03-27T09:32:12.360Z,9.31
2023-03-27T09:33:12.428Z,9.31
2023-03-27T09:34:12.351Z,9.21
2023-03-27T09:35:12.335Z,9.31
2023-03-27T09:36:12.340Z,9.40
2023-03-27T09:37:12.326Z,9.55
2023-03-27T09:38:12.305Z,9.69
2023-03-27T09:39:12.286Z,9.79
2023-03-27T09:40:12.283Z,9.92
2023-03-27T09:41:12.269Z,10.07
2023-03-27T09:42:12.247Z,10.25
2023-03-27T09:43:12.253Z,10.22
2023-03-27T09:44:12.230Z,9.98
2023-03-27T09:45:12.231Z,10.16
2023-03-27T09:46:12.212Z,10.31
2023-03-27T09:47:12.210Z,10.09
2023-03-27T09:48:12.203Z,9.92
2023-03-27T09:49:12.177Z,9.73
2023-03-27T09:50:12.176Z,9.68
2023-03-27T09:51:12.162Z,9.76
2023-03-27T09:52:12.137Z,9.66
2023-03-27T09:53:12.161Z,9.79
2023-03-27T09:54:12.142Z,9.74
2023-03-27T09:55:12.110Z,9.58
2023-03-27T09:56:12.092Z,9.83
2023-03-27T09:57:12.106Z,9.95
2023-03-27T09:58:12.081Z,10.10
2023-03-27T09:59:12.084Z,10.31
2023-03-27T10:00:12.053Z,10.46
2023-03-27T10:01:12.076Z,10.60
2023-03-27T10:02:12.029Z,10.72
2023-03-27T10:03:12.148Z,10.79
2023-03-27T10:04:12.093Z,10.69
2023-03-27T10:05:12.063Z,10.40
2023-03-27T10:06:12.003Z,10.15
2023-03-27T10:07:11.966Z,9.76
2023-03-27T10:08:11.974Z,9.73
2023-03-27T10:09:11.966Z,9.37
2023-03-27T10:10:11.987Z,9.25
2023-03-27T10:11:11.948Z,9.50
2023-03-27T10:12:11.948Z,9.64
2023-03-27T10:13:11.917Z,9.86
2023-03-27T10:14:11.902Z,9.97
2023-03-27T10:15:11.890Z,9.79
2023-03-27T10:16:11.952Z,9.72
2023-03-27T10:17:11.866Z,9.58
2023-03-27T10:18:11.957Z,9.41
2023-03-27T10:19:11.859Z,9.28
2023-03-27T10:20:11.830Z,9.21
2023-03-27T10:21:11.845Z,9.11
2023-03-27T10:22:14.318Z,8.94
2023-03-27T10:23:11.818Z,8.97
2023-03-27T10:24:11.788Z,9.18
2023-03-27T10:25:11.786Z,9.41
2023-03-27T10:26:11.763Z,9.68
2023-03-27T10:27:11.766Z,9.97
2023-03-27T10:28:11.739Z,10.02
2023-03-27T10:29:11.726Z,10.02
2023-03-27T10:30:11.728Z,9.97
2023-03-27T10:31:11.731Z,10.09
2023-03-27T10:32:11.724Z,9.91
2023-03-27T10:33:11.742Z,9.65
2023-03-27T10:34:11.674Z,9.34
2023-03-27T10:35:11.666Z,9.21
2023-03-27T10:36:11.672Z,8.89
2023-03-27T10:37:11.635Z,9.00
2023-03-27T10:38:11.636Z,9.08
2023-03-27T10:39:11.681Z,9.41
2023-03-27T10:40:11.608Z,9.62
2023-03-27T10:41:11.606Z,9.83
2023-03-27T10:42:11.605Z,10.15
2023-03-27T10:43:12.631Z,10.38
2023-03-27T10:44:11.558Z,10.59
2023-03-27T10:45:11.548Z,10.69
2023-03-27T10:46:11.633Z,10.68
2023-03-27T10:47:11.521Z,10.60
2023-03-27T10:48:11.575Z,10.59
2023-03-27T10:49:11.506Z,10.79
2023-03-27T10:50:11.493Z,10.97
2023-03-27T10:51:11.472Z,10.94
2023-03-27T10:52:11.491Z,10.79
2023-03-27T10:53:11.740Z,10.60
2023-03-27T10:54:11.470Z,10.44
2023-03-27T10:55:11.434Z,10.22
2023-03-27T10:56:11.431Z,9.98
2023-03-27T10:57:11.492Z,9.69
2023-03-27T10:58:11.398Z,9.54
2023-03-27T10:59:11.413Z,9.37
2023-03-27T11:00:11.372Z,9.22
2023-03-27T11:01:11.425Z,8.82
2023-03-27T11:02:11.355Z,8.44
2023-03-27T11:03:11.379Z,7.70
2023-03-27T11:04:11.353Z,7.33
2023-03-27T11:05:11.339Z,6.88
2023-03-27T11:06:11.311Z,6.36
2023-03-27T11:07:11.297Z,6.12
2023-03-27T11:08:11.281Z,5.89
2023-03-27T11:09:11.265Z,5.68
2023-03-27T11:10:11.271Z,5.56
2023-03-27T11:11:11.257Z,5.41
2023-03-27T11:12:11.250Z,5.20
2023-03-27T11:13:11.241Z,5.08
2023-03-27T11:14:11.234Z,5.05
2023-03-27T11:15:11.215Z,4.94
2023-03-27T11:16:11.269Z,4.90
2023-03-27T11:17:11.182Z,4.90
2023-03-27T11:18:11.208Z,4.87
2023-03-27T11:19:11.162Z,4.80
2023-03-27T11:20:11.155Z,4.97
2023-03-27T11:21:11.169Z,5.17
2023-03-27T11:22:11.133Z,5.39
2023-03-27T11:23:11.115Z,5.65
2023-03-27T11:24:11.100Z,5.75
2023-03-27T11:25:11.093Z,5.97
2023-03-27T11:26:11.106Z,6.14
2023-03-27T11:27:13.312Z,6.35
2023-03-27T11:28:11.057Z,6.38
2023-03-27T11:29:11.069Z,6.36
2023-03-27T11:30:11.030Z,6.62
2023-03-27T11:31:13.133Z,6.84
2023-03-27T11:32:11.014Z,7.11
2023-03-27T11:33:11.010Z,7.40
2023-03-27T11:34:10.984Z,7.67
2023-03-27T11:35:10.977Z,7.80
2023-03-27T11:36:10.990Z,7.90
2023-03-27T11:37:10.959Z,8.08
2023-03-27T11:38:10.951Z,8.26
2023-03-27T11:39:10.935Z,8.41
2023-03-27T11:40:10.917Z,8.64
2023-03-27T11:41:11.942Z,8.63
2023-03-27T11:42:10.918Z,8.63
2023-03-27T11:43:10.896Z,8.74
2023-03-27T11:44:10.876Z,8.89
2023-03-27T11:45:10.880Z,9.02
2023-03-27T11:46:10.930Z,8.84
2023-03-27T11:47:10.862Z,8.97
2023-03-27T11:48:11.311Z,9.00
2023-03-27T11:49:10.832Z,9.10
2023-03-27T11:50:10.847Z,9.25
2023-03-27T11:51:10.792Z,9.36
2023-03-27T11:52:10.787Z,9.43
2023-03-27T11:53:10.801Z,9.46
2023-03-27T11:54:10.758Z,9.62
2023-03-27T11:55:10.749Z,9.76
2023-03-27T11:56:10.753Z,9.86
2023-03-27T11:57:10.769Z,9.91
2023-03-27T11:58:10.741Z,9.99
2023-03-27T11:59:10.772Z,10.01
2023-03-27T12:00:10.745Z,9.92
2023-03-27T12:01:10.708Z,9.94
2023-03-27T12:02:10.782Z,9.95
2023-03-27T12:03:10.727Z,9.98
2023-03-27T12:04:10.687Z,9.84
2023-03-27T12:05:10.694Z,9.83
2023-03-27T12:06:10.634Z,9.95
2023-03-27T12:08:10.619Z,9.97
2023-03-27T12:09:10.617Z,9.69
2023-03-27T12:10:11.023Z,9.46
2023-03-27T12:11:10.630Z,9.50
2023-03-27T12:12:10.556Z,9.46
2023-03-27T12:13:11.513Z,9.64
2023-03-27T12:14:17.511Z,9.95
2023-03-27T12:15:11.565Z,9.95
2023-03-27T12:16:10.608Z,10.04
2023-03-27T12:17:10.552Z,10.10
2023-03-27T12:18:10.574Z,10.12
2023-03-27T12:19:21.180Z,9.98
2023-03-27T12:20:11.492Z,9.59
2023-03-27T12:21:10.489Z,9.40
2023-03-27T12:22:21.091Z,9.37
2023-03-27T12:23:11.441Z,9.25
2023-03-27T12:24:10.440Z,9.14
2023-03-27T12:25:10.427Z,9.04
2023-03-27T12:26:10.412Z,8.67
2023-03-27T12:27:10.388Z,8.49
2023-03-27T12:28:22.462Z,7.82
2023-03-27T12:29:23.603Z,7.39
2023-03-27T12:30:11.399Z,6.99
2023-03-27T12:31:10.347Z,6.77
2023-03-27T12:32:10.361Z,6.70
2023-03-27T12:33:10.397Z,6.79
2023-03-27T12:34:10.314Z,6.96
2023-03-27T12:35:10.301Z,7.23
2023-03-27T12:36:10.468Z,7.32
2023-03-27T12:37:10.279Z,7.51
2023-03-27T12:38:10.261Z,7.70
2023-03-27T12:39:10.264Z,7.90
2023-03-27T12:40:10.251Z,8.08
2023-03-27T12:41:10.231Z,8.18
2023-03-27T12:42:10.218Z,8.41
2023-03-27T12:43:10.206Z,8.60
2023-03-27T12:44:10.218Z,8.69
2023-03-27T12:45:10.179Z,8.51
2023-03-27T12:46:10.202Z,8.73
2023-03-27T12:47:10.153Z,8.78
2023-03-27T12:48:10.270Z,8.71
2023-03-27T12:49:10.180Z,8.97
2023-03-27T12:50:10.133Z,9.10
2023-03-27T12:51:10.125Z,9.10
2023-03-27T12:52:10.110Z,9.03
2023-03-27T12:53:10.087Z,8.87
2023-03-27T12:54:10.109Z,9.08
2023-03-27T12:55:10.089Z,9.04
2023-03-27T12:56:10.058Z,9.16
2023-03-27T12:57:10.121Z,9.34
2023-03-27T12:58:10.178Z,9.47
2023-03-27T12:59:10.028Z,9.31
2023-03-27T13:00:10.021Z,9.18
2023-03-27T13:01:10.037Z,9.10
2023-03-27T13:02:10.115Z,9.06
2023-03-27T13:03:10.151Z,8.88
2023-03-27T13:04:09.980Z,8.95
2023-03-27T13:05:24.100Z,8.99
2023-03-27T13:06:10.952Z,8.79
2023-03-27T13:07:09.932Z,8.78
2023-03-27T13:08:09.960Z,8.89
2023-03-27T13:09:09.910Z,8.88
2023-03-27T13:10:09.917Z,8.88
2023-03-27T13:11:09.899Z,8.94
2023-03-27T13:12:09.901Z,9.02
2023-03-27T13:13:09.865Z,9.28
2023-03-27T13:14:09.857Z,9.41
2023-03-27T13:15:09.842Z,9.47
2023-03-27T13:16:09.871Z,9.39
2023-03-27T13:17:09.845Z,9.56
2023-03-27T13:18:09.855Z,9.62
2023-03-27T13:19:09.801Z,9.65